createdAt,value
2023-05-20T00:00:05.340Z,3.80
2023-05-20T00:02:33.733Z,3.33
2023-05-20T00:05:01.849Z,3.30
2023-05-20T00:07:29.651Z,3.40
2023-05-20T00:09:57.825Z,3.57
2023-05-20T00:12:25.577Z,3.53
2023-05-20T00:14:55.224Z,3.90
2023-05-20T00:17:24.013Z,3.57
2023-05-20T00:19:51.931Z,3.67
2023-05-20T00:22:20.114Z,3.33
2023-05-20T00:24:51.382Z,3.43
2023-05-20T00:27:19.413Z,3.30
2023-05-20T00:29:47.419Z,3.23
2023-05-20T00:32:15.498Z,3.17
2023-05-20T00:34:44.546Z,3.60
2023-05-20T00:37:12.481Z,3.40
2023-05-20T00:39:40.012Z,3.43
2023-05-20T00:42:08.175Z,3.60
2023-05-20T00:44:35.944Z,3.70
2023-05-20T00:47:04.352Z,3.53
2023-05-20T00:49:32.464Z,3.50
2023-05-20T00:52:00.839Z,4.10
2023-05-20T00:54:28.834Z,4.17
2023-05-20T00:56:56.256Z,3.90
2023-05-20T00:59:23.952Z,4.10
2023-05-20T01:01:52.150Z,3.73
2023-05-20T01:04:20.035Z,3.50
2023-05-20T01:06:47.983Z,3.50
2023-05-20T01:09:15.650Z,4.03
2023-05-20T01:11:48.486Z,3.33
2023-05-20T01:14:16.248Z,3.80
2023-05-20T01:16:43.667Z,4.47
2023-05-20T01:19:22.088Z,3.97
2023-05-20T01:21:50.193Z,4.23
2023-05-20T01:24:18.808Z,4.20
2023-05-20T01:26:48.501Z,3.87
2023-05-20T01:29:18.715Z,4.40
2023-05-20T01:31:46.563Z,4.00
2023-05-20T01:34:14.611Z,3.70
2023-05-20T01:36:42.533Z,3.93
2023-05-20T01:39:10.391Z,4.13
2023-05-20T01:41:38.365Z,4.33
2023-05-20T01:44:06.069Z,4.43
2023-05-20T01:46:34.667Z,3.83
2023-05-20T01:49:02.665Z,3.50
2023-05-20T01:51:31.256Z,3.67
2023-05-20T01:53:59.125Z,4.10
2023-05-20T01:56:26.755Z,4.00
2023-05-20T01:58:54.967Z,3.97
2023-05-20T02:01:22.782Z,4.30
2023-05-20T02:03:50.698Z,4.40
2023-05-20T02:06:18.795Z,3.53
2023-05-20T02:08:47.178Z,3.70
2023-05-20T02:11:15.250Z,4.23
2023-05-20T02:13:43.596Z,3.70
2023-05-20T02:16:11.598Z,4.20
2023-05-20T02:18:39.884Z,4.27
2023-05-20T02:21:11.047Z,3.70
2023-05-20T02:23:39.030Z,3.70
2023-05-20T02:26:07.110Z,3.70
2023-05-20T02:28:34.682Z,3.90
2023-05-20T02:31:02.200Z,4.40
2023-05-20T02:33:30.055Z,3.57
2023-05-20T02:35:57.806Z,4.23
2023-05-20T02:38:25.662Z,4.03
2023-05-20T02:40:53.640Z,3.53
2023-05-20T02:43:21.575Z,4.17
2023-05-20T02:45:49.353Z,3.97
2023-05-20T02:48:17.896Z,3.67
2023-05-20T02:50:46.655Z,4.30
2023-05-20T02:53:14.360Z,3.83
2023-05-20T02:55:41.571Z,3.43
2023-05-20T02:58:09.515Z,3.40
2023-05-20T03:00:41.080Z,3.30
2023-05-20T03:03:10.305Z,3.93
2023-05-20T03:05:38.717Z,4.03
2023-05-20T03:08:10.527Z,3.53
2023-05-20T03:10:38.966Z,4.00
2023-05-20T03:13:08.858Z,5.00
2023-05-20T03:15:36.924Z,4.50
2023-05-20T03:18:05.277Z,4.63
2023-05-20T03:20:33.448Z,4.30
2023-05-20T03:23:02.156Z,4.30
2023-05-20T03:25:29.944Z,4.30
2023-05-20T03:27:58.447Z,4.30
2023-05-20T03:30:26.541Z,3.90
2023-05-20T03:32:55.793Z,3.67
2023-05-20T03:35:23.997Z,4.07
2023-05-20T03:37:53.297Z,3.77
2023-05-20T03:43:03.751Z,4.20
2023-05-20T03:45:34.063Z,3.17
2023-05-20T03:48:03.665Z,3.40
2023-05-20T03:53:20.943Z,3.23
2023-05-20T03:55:49.555Z,3.37
2023-05-20T03:58:17.539Z,3.60
2023-05-20T04:00:46.392Z,3.30
2023-05-20T04:03:13.860Z,3.63
2023-05-20T04:05:45.853Z,3.50
2023-05-20T04:10:49.952Z,3.40
2023-05-20T04:13:20.666Z,3.60
2023-05-20T04:15:49.697Z,3.30
2023-05-20T04:18:18.053Z,3.47
2023-05-20T04:20:46.617Z,3.60
2023-05-20T04:23:15.068Z,3.63
2023-05-20T04:25:44.820Z,3.70
2023-05-20T04:28:14.110Z,3.47
2023-05-20T04:30:42.486Z,3.67
2023-05-20T04:33:11.349Z,3.40
2023-05-20T04:35:41.766Z,3.20
2023-05-20T04:38:09.381Z,3.10
2023-05-20T04:40:37.290Z,3.80
2023-05-20T04:43:04.956Z,3.40
2023-05-20T04:45:34.268Z,3.20
2023-05-20T04:48:02.543Z,3.00
2023-05-20T04:50:30.574Z,3.30
2023-05-20T04:52:59.056Z,2.73
2023-05-20T04:55:27.561Z,2.80
2023-05-20T04:58:01.509Z,3.30
2023-05-20T05:00:29.464Z,3.27
2023-05-20T05:02:57.083Z,2.73
2023-05-20T05:05:24.980Z,2.73
2023-05-20T05:07:52.888Z,3.10
2023-05-20T05:10:21.944Z,2.60
2023-05-20T05:12:49.669Z,2.80
2023-05-20T05:15:18.122Z,2.63
2023-05-20T05:17:45.933Z,2.40
2023-05-20T05:20:13.772Z,2.40
2023-05-20T05:22:41.664Z,2.70
2023-05-20T05:25:12.397Z,3.20
2023-05-20T05:27:39.282Z,2.83
2023-05-20T05:30:10.362Z,2.90
2023-05-20T05:32:38.825Z,2.30
2023-05-20T05:35:08.503Z,2.80
2023-05-20T05:37:36.638Z,2.60
2023-05-20T05:40:05.620Z,2.23
2023-05-20T05:42:36.869Z,2.23
2023-05-20T05:45:06.845Z,2.30
2023-05-20T05:47:34.844Z,2.33
2023-05-20T05:50:02.822Z,2.03
2023-05-20T05:52:30.351Z,2.20
2023-05-20T05:54:58.678Z,2.40
2023-05-20T05:57:26.703Z,2.27
2023-05-20T05:59:57.260Z,3.00
2023-05-20T06:02:25.359Z,2.40
2023-05-20T06:04:53.651Z,2.60
2023-05-20T06:07:21.565Z,2.40
2023-05-20T06:09:49.159Z,2.93
2023-05-20T06:12:17.218Z,3.00
2023-05-20T06:14:44.846Z,2.40
2023-05-20T06:17:12.341Z,2.73
2023-05-20T06:19:40.284Z,3.30
2023-05-20T06:22:08.240Z,2.93
2023-05-20T06:24:35.750Z,2.93
2023-05-20T06:27:03.736Z,2.60
2023-05-20T06:29:32.215Z,2.90
2023-05-20T06:32:00.480Z,2.93
2023-05-20T06:34:28.688Z,2.73
2023-05-20T06:37:00.301Z,3.10
2023-05-20T06:39:28.664Z,2.67
2023-05-20T06:41:56.622Z,3.90
2023-05-20T06:44:24.226Z,2.93
2023-05-20T06:46:51.911Z,4.03
2023-05-20T06:49:19.674Z,3.10
2023-05-20T06:51:47.693Z,3.60
2023-05-20T06:54:15.160Z,3.03
2023-05-20T06:56:43.029Z,2.90
2023-05-20T06:59:10.683Z,3.10
2023-05-20T07:01:38.618Z,3.10
2023-05-20T07:04:26.685Z,2.40
2023-05-20T07:06:54.257Z,2.47
2023-05-20T07:09:22.184Z,2.90
2023-05-20T07:11:50.434Z,2.90
2023-05-20T07:14:17.895Z,2.47
2023-05-20T07:16:45.429Z,2.97
2023-05-20T07:19:13.488Z,2.20
2023-05-20T07:21:42.025Z,2.77
2023-05-20T07:24:09.614Z,2.73
2023-05-20T07:26:38.012Z,2.70
2023-05-20T07:29:05.983Z,2.63
2023-05-20T07:31:33.924Z,2.80
2023-05-20T07:34:01.564Z,2.70
2023-05-20T07:36:29.955Z,3.10
2023-05-20T07:39:03.522Z,2.43
2023-05-20T07:41:40.574Z,2.90
2023-05-20T07:44:19.515Z,2.45
2023-05-20T07:50:11.448Z,3.20
2023-05-20T07:55:10.244Z,3.20
2023-05-20T07:57:38.257Z,2.93
2023-05-20T08:00:08.363Z,3.13
2023-05-20T08:02:36.708Z,3.17
2023-05-20T08:05:06.255Z,3.00
2023-05-20T08:07:34.119Z,3.17
2023-05-20T08:10:07.118Z,3.30
2023-05-20T08:12:34.600Z,3.10
2023-05-20T08:15:02.433Z,3.50
2023-05-20T08:17:30.486Z,3.67
2023-05-20T08:20:00.958Z,3.53
2023-05-20T08:22:33.496Z,4.10
2023-05-20T08:25:00.968Z,3.80
2023-05-20T08:27:28.880Z,3.60
2023-05-20T08:29:57.274Z,3.37
2023-05-20T08:32:34.081Z,3.60
2023-05-20T08:35:02.274Z,3.70
2023-05-20T08:37:30.144Z,3.70
2023-05-20T08:39:58.312Z,4.07
2023-05-20T08:42:26.965Z,3.87
2023-05-20T08:44:55.130Z,4.23
2023-05-20T08:47:22.776Z,3.80
2023-05-20T08:49:50.749Z,4.23
2023-05-20T08:52:30.598Z,3.90
2023-05-20T08:54:58.116Z,4.00
2023-05-20T08:57:26.050Z,3.70
2023-05-20T08:59:54.399Z,3.83
2023-05-20T09:02:22.688Z,4.30
2023-05-20T09:04:51.404Z,5.03
2023-05-20T09:07:29.159Z,5.33
2023-05-20T09:09:57.231Z,5.03
2023-05-20T09:12:25.109Z,4.57
2023-05-20T09:14:53.082Z,5.03
2023-05-20T09:17:40.090Z,5.20
2023-05-20T09:20:12.341Z,4.75
2023-05-20T09:22:39.703Z,4.83
2023-05-20T09:25:11.564Z,5.10
2023-05-20T09:27:40.816Z,5.83
2023-05-20T09:30:12.681Z,5.77
2023-05-20T09:32:40.341Z,5.40
2023-05-20T09:35:10.161Z,5.40
2023-05-20T09:37:38.194Z,5.10
2023-05-20T09:40:10.092Z,4.63
2023-05-20T09:42:48.074Z,5.07
2023-05-20T09:45:17.346Z,4.80
2023-05-20T09:47:45.057Z,5.43
2023-05-20T09:50:13.092Z,5.13
2023-05-20T09:52:40.631Z,5.33
2023-05-20T09:55:10.617Z,6.30
2023-05-20T09:57:38.746Z,5.70
2023-05-20T10:00:06.392Z,6.50
2023-05-20T10:02:34.428Z,6.30
2023-05-20T10:05:04.605Z,6.83
2023-05-20T10:08:05.024Z,6.13
2023-05-20T10:10:55.967Z,5.90
2023-05-20T10:13:42.553Z,6.00
2023-05-20T10:16:33.755Z,6.45
2023-05-20T10:19:06.197Z,6.40
2023-05-20T10:22:14.868Z,7.20
2023-05-20T10:25:01.556Z,6.90
2023-05-20T10:28:01.091Z,7.07
2023-05-20T10:30:36.406Z,6.93
2023-05-20T10:33:05.863Z,7.80
2023-05-20T10:35:33.955Z,7.57
2023-05-20T10:38:12.433Z,6.83
2023-05-20T10:40:43.248Z,7.40
2023-05-20T10:43:15.231Z,7.13
2023-05-20T10:45:53.541Z,7.27
2023-05-20T10:48:51.345Z,7.00
2023-05-20T10:51:19.426Z,6.20
2023-05-20T10:53:46.692Z,6.43
2023-05-20T10:56:40.616Z,6.47
2023-05-20T10:59:25.244Z,6.37
2023-05-20T11:01:53.338Z,6.73
2023-05-20T11:04:20.460Z,6.32
2023-05-20T11:06:55.887Z,6.57
2023-05-20T11:09:23.439Z,6.50
2023-05-20T11:11:51.454Z,6.57
2023-05-20T11:14:20.602Z,6.73
2023-05-20T11:16:56.116Z,7.07
2023-05-20T11:19:23.850Z,6.93
2023-05-20T11:21:51.602Z,7.10
2023-05-20T11:24:28.519Z,7.43
2023-05-20T11:26:57.629Z,7.00
2023-05-20T11:29:26.382Z,6.30
2023-05-20T11:31:54.356Z,7.50
2023-05-20T11:34:24.996Z,7.47
2023-05-20T11:37:11.868Z,7.77
2023-05-20T11:39:39.805Z,6.80
2023-05-20T11:42:08.007Z,8.47
2023-05-20T11:44:35.577Z,7.17
2023-05-20T11:47:03.410Z,6.97
2023-05-20T11:49:31.312Z,7.20
2023-05-20T11:51:58.946Z,6.93
2023-05-20T11:54:26.753Z,6.93
2023-05-20T11:56:57.904Z,7.47
2023-05-20T11:59:25.816Z,7.83
2023-05-20T12:02:03.250Z,7.67
2023-05-20T12:04:31.302Z,7.57
2023-05-20T12:06:59.340Z,7.80
2023-05-20T12:09:26.989Z,7.43
2023-05-20T12:11:56.897Z,7.37
2023-05-20T12:14:24.863Z,7.57
2023-05-20T12:16:56.384Z,7.03
2023-05-20T12:19:24.958Z,7.80
2023-05-20T12:21:53.753Z,7.15
2023-05-20T12:24:21.428Z,7.67
2023-05-20T12:26:48.500Z,7.07
2023-05-20T12:29:16.096Z,7.23
2023-05-20T12:31:43.967Z,7.20
2023-05-20T12:34:11.957Z,6.77
2023-05-20T12:36:39.937Z,6.67
2023-05-20T12:39:07.615Z,7.80
2023-05-20T12:41:35.580Z,7.97
2023-05-20T12:44:03.268Z,6.60
2023-05-20T12:46:31.370Z,6.63
2023-05-20T12:48:58.952Z,6.53
2023-05-20T12:51:26.981Z,7.30
2023-05-20T12:53:58.828Z,6.93
2023-05-20T12:56:26.495Z,7.00
2023-05-20T12:58:54.345Z,6.47
2023-05-20T13:01:22.301Z,6.70
2023-05-20T13:03:53.519Z,6.67
2023-05-20T13:06:20.720Z,6.47
2023-05-20T13:08:48.860Z,6.37
2023-05-20T13:11:16.534Z,6.28
2023-05-20T13:13:44.610Z,6.73
2023-05-20T13:16:12.648Z,6.93
2023-05-20T13:18:40.532Z,6.70
2023-05-20T13:21:08.830Z,6.30
2023-05-20T13:23:37.207Z,6.30
2023-05-20T13:26:05.413Z,6.70
2023-05-20T13:28:33.415Z,6.77
2023-05-20T13:31:02.781Z,7.47
2023-05-20T13:33:30.760Z,6.93
2023-05-20T13:35:58.725Z,6.70
2023-05-20T13:38:26.279Z,7.23
2023-05-20T13:40:54.205Z,6.93
2023-05-20T13:43:21.828Z,6.67
2023-05-20T13:45:49.860Z,6.70
2023-05-20T13:48:17.642Z,7.20
2023-05-20T13:50:45.736Z,7.37
2023-05-20T13:53:13.952Z,7.37
2023-05-20T13:55:41.602Z,7.00
2023-05-20T13:58:12.542Z,7.60
2023-05-20T14:00:40.823Z,7.53
2023-05-20T14:03:10.462Z,7.23
2023-05-20T14:05:38.865Z,7.03
2023-05-20T14:08:06.720Z,8.63
2023-05-20T14:10:34.794Z,8.00
2023-05-20T14:13:02.549Z,6.87
2023-05-20T14:15:32.920Z,6.60
2023-05-20T14:18:00.986Z,7.67
2023-05-20T14:20:28.882Z,7.43
2023-05-20T14:22:57.035Z,6.87
2023-05-20T14:25:25.313Z,7.20
2023-05-20T14:27:53.177Z,7.00
2023-05-20T14:30:21.033Z,6.70
2023-05-20T14:32:48.740Z,6.60
2023-05-20T14:35:18.707Z,6.65
2023-05-20T14:37:46.481Z,7.07
2023-05-20T14:40:15.394Z,6.60
2023-05-20T14:42:43.187Z,6.88
2023-05-20T14:45:12.515Z,6.60
2023-05-20T14:47:40.306Z,7.23
2023-05-20T14:50:09.688Z,7.07
2023-05-20T14:52:37.770Z,7.33
2023-05-20T14:55:08.676Z,7.03
2023-05-20T14:57:36.538Z,7.53
2023-05-20T15:00:05.328Z,7.67
2023-05-20T15:02:33.612Z,7.87
2023-05-20T15:05:01.548Z,8.17
2023-05-20T15:07:37.063Z,8.60
2023-05-20T15:10:06.638Z,7.70
2023-05-20T15:12:34.739Z,8.03
2023-05-20T15:15:02.344Z,7.57
2023-05-20T15:17:30.893Z,8.00
2023-05-20T15:20:09.947Z,7.93
2023-05-20T15:22:38.248Z,8.20
2023-05-20T15:25:06.835Z,8.17
2023-05-20T15:27:34.825Z,9.40
2023-05-20T15:30:02.979Z,8.60
2023-05-20T15:32:30.925Z,7.87
2023-05-20T15:35:18.476Z,7.80
2023-05-20T15:37:45.968Z,8.17
2023-05-20T15:40:14.413Z,8.13
2023-05-20T15:42:42.313Z,7.80
2023-05-20T15:45:13.047Z,7.90
2023-05-20T15:47:40.851Z,8.40
2023-05-20T15:50:12.728Z,8.27
2023-05-20T15:52:40.562Z,8.03
2023-05-20T15:55:11.014Z,9.50
2023-05-20T15:57:38.571Z,8.17
2023-05-20T16:00:12.448Z,8.37
2023-05-20T16:02:41.453Z,8.87
2023-05-20T16:05:10.656Z,8.83
2023-05-20T16:07:37.964Z,8.77
2023-05-20T16:10:08.430Z,8.50
2023-05-20T16:12:36.693Z,8.30
2023-05-20T16:15:05.660Z,7.73
2023-05-20T16:17:34.013Z,7.80
2023-05-20T16:20:02.024Z,8.17
2023-05-20T16:22:29.925Z,8.17
2023-05-20T16:24:58.165Z,9.00
2023-05-20T16:27:25.602Z,8.77
2023-05-20T16:29:53.877Z,8.97
2023-05-20T16:32:22.031Z,8.73
2023-05-20T16:34:50.496Z,8.20
2023-05-20T16:37:18.682Z,8.80
2023-05-20T16:39:46.431Z,8.07
2023-05-20T16:42:14.490Z,8.50
2023-05-20T16:44:42.174Z,8.80
2023-05-20T16:47:10.164Z,8.90
2023-05-20T16:49:38.024Z,8.70
2023-05-20T16:52:08.751Z,9.57
2023-05-20T16:54:36.458Z,9.67
2023-05-20T16:57:08.140Z,9.73
2023-05-20T16:59:36.170Z,10.73
2023-05-20T17:02:03.813Z,10.40
2023-05-20T17:04:31.508Z,9.37
2023-05-20T17:07:01.773Z,9.67
2023-05-20T17:09:30.048Z,8.97
2023-05-20T17:11:58.304Z,9.33
2023-05-20T17:14:26.077Z,9.43
2023-05-20T17:16:53.971Z,11.40
2023-05-20T17:19:22.058Z,11.20
2023-05-20T17:21:49.789Z,9.57
2023-05-20T17:24:17.364Z,9.43
2023-05-20T17:26:44.883Z,9.53
2023-05-20T17:29:13.290Z,10.43
2023-05-20T17:31:40.906Z,9.93
2023-05-20T17:34:08.504Z,9.90
2023-05-20T17:36:36.474Z,10.00
2023-05-20T17:39:04.648Z,9.70
2023-05-20T17:41:32.279Z,9.97
2023-05-20T17:44:01.554Z,10.60
2023-05-20T17:46:29.857Z,11.20
2023-05-20T17:48:57.509Z,10.73
2023-05-20T17:51:25.500Z,11.10
2023-05-20T17:53:53.533Z,11.03
2023-05-20T17:56:23.584Z,11.17
2023-05-20T17:58:51.544Z,12.80
2023-05-20T18:01:19.559Z,13.13
2023-05-20T18:03:47.785Z,10.70
2023-05-20T18:06:15.404Z,11.07
2023-05-20T18:08:43.346Z,11.03
2023-05-20T18:11:11.068Z,13.33
2023-05-20T18:13:38.974Z,16.20
2023-05-20T18:16:08.059Z,13.17
2023-05-20T18:18:35.904Z,10.40
2023-05-20T18:21:06.790Z,11.57
2023-05-20T18:23:49.280Z,11.90
2023-05-20T18:26:17.329Z,11.93
2023-05-20T18:28:45.023Z,11.97
2023-05-20T18:31:13.220Z,10.80
2023-05-20T18:33:41.042Z,10.37
2023-05-20T18:36:08.541Z,10.67
2023-05-20T18:38:36.549Z,10.70
2023-05-20T18:41:05.583Z,10.63
2023-05-20T18:43:49.036Z,9.60
2023-05-20T18:46:16.783Z,10.70
2023-05-20T18:48:44.943Z,10.00
2023-05-20T18:51:12.887Z,10.03
2023-05-20T18:53:40.859Z,11.17
2023-05-20T18:56:09.196Z,11.33
2023-05-20T18:58:37.304Z,10.43
2023-05-20T19:01:05.741Z,10.87
2023-05-20T19:03:33.744Z,11.90
2023-05-20T19:06:01.355Z,11.50
2023-05-20T19:08:29.626Z,11.37
2023-05-20T19:10:57.166Z,11.77
2023-05-20T19:13:25.096Z,11.80
2023-05-20T19:15:52.261Z,11.43
2023-05-20T19:18:21.519Z,11.80
2023-05-20T19:20:49.662Z,11.07
2023-05-20T19:23:17.718Z,12.60
2023-05-20T19:25:45.496Z,11.70
2023-05-20T19:28:14.210Z,11.97
2023-05-20T19:30:41.835Z,12.27
2023-05-20T19:33:10.302Z,12.00
2023-05-20T19:35:38.616Z,12.37
2023-05-20T19:38:07.238Z,12.20
2023-05-20T19:40:35.613Z,12.00
2023-05-20T19:43:03.215Z,12.17
2023-05-20T19:45:31.192Z,11.53
2023-05-20T19:47:59.020Z,12.00
2023-05-20T19:50:27.390Z,11.57
2023-05-20T19:52:55.684Z,13.07
2023-05-20T19:55:23.638Z,12.37
2023-05-20T19:57:53.942Z,11.97
2023-05-20T20:00:31.447Z,12.53
2023-05-20T20:03:00.186Z,12.13
2023-05-20T20:05:28.128Z,13.83
2023-05-20T20:07:56.270Z,14.27
2023-05-20T20:10:24.869Z,14.30
2023-05-20T20:12:52.874Z,14.70
2023-05-20T20:15:20.726Z,13.70
2023-05-20T20:17:52.546Z,13.93
2023-05-20T20:20:20.676Z,14.17
2023-05-20T20:22:48.622Z,14.07
2023-05-20T20:25:17.609Z,14.93
2023-05-20T20:27:45.885Z,13.40
2023-05-20T20:30:15.213Z,13.73
2023-05-20T20:32:43.297Z,13.57
2023-05-20T20:35:11.536Z,14.63
2023-05-20T20:37:39.491Z,14.47
2023-05-20T20:40:13.280Z,13.97
2023-05-20T20:42:45.314Z,13.63
2023-05-20T20:45:13.464Z,13.50
2023-05-20T20:47:41.747Z,13.20
2023-05-20T20:50:11.634Z,13.03
2023-05-20T20:52:42.968Z,13.57
2023-05-20T20:55:12.510Z,13.07
2023-05-20T20:57:42.002Z,13.83
2023-05-20T21:00:20.684Z,12.73
2023-05-20T21:02:48.351Z,12.33
2023-05-20T21:05:16.973Z,13.23
2023-05-20T21:07:49.307Z,12.70
2023-05-20T21:10:20.794Z,13.47
2023-05-20T21:12:48.453Z,13.77
2023-05-20T21:15:16.595Z,12.27
2023-05-20T21:17:44.640Z,13.93
2023-05-20T21:20:14.248Z,13.40
2023-05-20T21:22:41.917Z,13.97
2023-05-20T21:25:10.541Z,13.77
2023-05-20T21:27:38.027Z,13.97
2023-05-20T21:30:08.461Z,14.10
2023-05-20T21:32:36.011Z,15.03
2023-05-20T21:35:06.419Z,14.13
2023-05-20T21:37:34.021Z,14.67
2023-05-20T21:40:02.010Z,14.73
2023-05-20T21:42:29.964Z,14.40
2023-05-20T21:44:57.933Z,14.17
2023-05-20T21:47:25.513Z,13.63
2023-05-20T21:49:53.483Z,14.40
2023-05-20T21:52:21.070Z,14.27
2023-05-20T21:54:48.910Z,13.63
2023-05-20T21:57:16.764Z,14.53
2023-05-20T21:59:44.779Z,14.50
2023-05-20T22:02:12.672Z,14.57
2023-05-20T22:04:40.820Z,13.27
2023-05-20T22:07:09.177Z,14.07
2023-05-20T22:09:35.965Z,13.63
2023-05-20T22:12:05.025Z,14.60
2023-05-20T22:14:33.066Z,14.53
2023-05-20T22:17:00.979Z,16.47
2023-05-20T22:19:28.538Z,15.67
2023-05-20T22:21:56.166Z,14.87
2023-05-20T22:24:24.137Z,15.93
2023-05-20T22:26:52.099Z,14.60
2023-05-20T22:29:20.361Z,16.33
2023-05-20T22:31:48.262Z,14.67
2023-05-20T22:34:16.265Z,15.83
2023-05-20T22:36:45.344Z,14.80
2023-05-20T22:39:13.457Z,15.60
2023-05-20T22:41:41.021Z,16.03
2023-05-20T22:44:08.574Z,15.67
2023-05-20T22:46:36.651Z,15.77
2023-05-20T22:49:04.530Z,15.80
2023-05-20T22:51:34.473Z,15.80
2023-05-20T22:54:01.922Z,14.87
2023-05-20T22:56:29.750Z,14.90
2023-05-20T22:58:57.660Z,15.33
2023-05-20T23:01:25.787Z,14.90
2023-05-20T23:03:53.868Z,13.93
2023-05-20T23:06:22.845Z,14.13
2023-05-20T23:08:50.108Z,15.47
2023-05-20T23:11:18.084Z,15.13
2023-05-20T23:13:46.354Z,14.93
2023-05-20T23:16:16.751Z,14.17
2023-05-20T23:18:44.782Z,14.33
2023-05-20T23:21:12.324Z,13.97
2023-05-20T23:23:40.128Z,15.00
2023-05-20T23:26:07.894Z,14.57
2023-05-20T23:28:35.949Z,13.77
2023-05-20T23:31:03.689Z,14.10
2023-05-20T23:33:31.275Z,14.33
2023-05-20T23:35:59.299Z,12.90
2023-05-20T23:38:27.208Z,13.53
2023-05-20T23:40:55.445Z,13.43
2023-05-20T23:43:24.872Z,13.40
2023-05-20T23:45:52.945Z,13.90
2023-05-20T23:48:20.787Z,12.27
2023-05-20T23:50:48.990Z,13.17
2023-05-20T23:53:17.111Z,12.17
2023-05-20T23:55:45.358Z,12.80
2023-05-20T23:58:12.932Z,12.83
